sensor_id;sensor_type;location;lat;lon;timestamp;pressure;altitude;pressure_sealevel;temperature;humidity
15634;BME280;14654;48.898;8.308;2023-11-19T00:02:14;100093.88;;;10.07;100.00
15634;BME280;14654;48.898;8.308;2023-11-19T00:04:40;100082.69;;;10.10;100.00
15634;BME280;14654;48.898;8.308;2023-11-19T00:07:06;100080.09;;;10.10;100.00
15634;BME280;14654;48.898;8.308;2023-11-19T00:09:33;100081.81;;;10.10;100.00
15634;BME280;14654;48.898;8.308;2023-11-19T00:11:59;100080.16;;;10.05;100.00
15634;BME280;14654;48.898;8.308;2023-11-19T00:14:26;100081.81;;;10.10;100.00
15634;BME280;14654;48.898;8.308;2023-11-19T00:16:51;100074.94;;;10.10;100.00
15634;BME280;14654;48.898;8.308;2023-11-19T00:19:17;100076.63;;;10.11;100.00
15634;BME280;14654;48.898;8.308;2023-11-19T00:21:44;100068.81;;;10.14;100.00
15634;BME280;14654;48.898;8.308;2023-11-19T00:24:11;100064.53;;;10.15;100.00
15634;BME280;14654;48.898;8.308;2023-11-19T00:26:37;100048.97;;;10.18;100.00
15634;BME280;14654;48.898;8.308;2023-11-19T00:29:03;100047.25;;;10.20;100.00
15634;BME280;14654;48.898;8.308;2023-11-19T00:31:29;100043.72;;;10.24;100.00
15634;BME280;14654;48.898;8.308;2023-11-19T00:33:54;100034.25;;;10.23;100.00
15634;BME280;14654;48.898;8.308;2023-11-19T00:36:20;100034.25;;;10.25;100.00
15634;BME280;14654;48.898;8.308;2023-11-19T00:38:45;100042.84;;;10.25;100.00
15634;BME280;14654;48.898;8.308;2023-11-19T00:41:11;100037.69;;;10.25;100.00
15634;BME280;14654;48.898;8.308;2023-11-19T00:43:36;100031.63;;;10.26;100.00
15634;BME280;14654;48.898;8.308;2023-11-19T00:46:02;100022.97;;;10.29;100.00
15634;BME280;14654;48.898;8.308;2023-11-19T00:48:28;100017.00;;;10.25;100.00
15634;BME280;14654;48.898;8.308;2023-11-19T00:50:53;100017.84;;;10.24;100.00
15634;BME280;14654;48.898;8.308;2023-11-19T00:53:19;100020.41;;;10.27;100.00
15634;BME280;14654;48.898;8.308;2023-11-19T00:55:44;100026.44;;;10.29;100.00
15634;BME280;14654;48.898;8.308;2023-11-19T00:58:09;100028.16;;;10.30;100.00
15634;BME280;14654;48.898;8.308;2023-11-19T01:00:35;100022.94;;;10.32;100.00
15634;BME280;14654;48.898;8.308;2023-11-19T01:03:00;100023.81;;;10.31;100.00
15634;BME280;14654;48.898;8.308;2023-11-19T01:05:25;100020.38;;;10.29;100.00
15634;BME280;14654;48.898;8.308;2023-11-19T01:07:51;100016.16;;;10.25;100.00
15634;BME280;14654;48.898;8.308;2023-11-19T01:10:18;100017.78;;;10.33;100.00
15634;BME280;14654;48.898;8.308;2023-11-19T01:12:44;100012.59;;;10.32;100.00
15634;BME280;14654;48.898;8.308;2023-11-19T01:15:09;100022.03;;;10.36;100.00
15634;BME280;14654;48.898;8.308;2023-11-19T01:17:37;100022.03;;;10.39;100.00
15634;BME280;14654;48.898;8.308;2023-11-19T01:20:03;100011.66;;;10.41;100.00
15634;BME280;14654;48.898;8.308;2023-11-19T01:22:31;100014.25;;;10.37;100.00
15634;BME280;14654;48.898;8.308;2023-11-19T01:24:56;100028.94;;;10.37;100.00
15634;BME280;14654;48.898;8.308;2023-11-19T01:27:23;100024.63;;;10.39;100.00
15634;BME280;14654;48.898;8.308;2023-11-19T01:29:49;100014.31;;;10.34;100.00
15634;BME280;14654;48.898;8.308;2023-11-19T01:32:14;100018.53;;;10.42;100.00
15634;BME280;14654;48.898;8.308;2023-11-19T01:34:40;100010.78;;;10.43;100.00
15634;BME280;14654;48.898;8.308;2023-11-19T01:37:06;100012.47;;;10.46;100.00
15634;BME280;14654;48.898;8.308;2023-11-19T01:39:31;100017.59;;;10.49;100.00
15634;BME280;14654;48.898;8.308;2023-11-19T01:41:56;100021.09;;;10.45;100.00
15634;BME280;14654;48.898;8.308;2023-11-19T01:44:22;100020.16;;;10.50;100.00
15634;BME280;14654;48.898;8.308;2023-11-19T01:46:47;100017.63;;;10.46;100.00
15634;BME280;14654;48.898;8.308;2023-11-19T01:49:17;100017.59;;;10.47;100.00
15634;BME280;14654;48.898;8.308;2023-11-19T01:51:45;100017.56;;;10.50;100.00
15634;BME280;14654;48.898;8.308;2023-11-19T01:54:12;100022.75;;;10.50;100.00
15634;BME280;14654;48.898;8.308;2023-11-19T01:56:39;100012.34;;;10.55;100.00
15634;BME280;14654;48.898;8.308;2023-11-19T01:59:09;100002.84;;;10.56;100.00
15634;BME280;14654;48.898;8.308;2023-11-19T02:01:36;100005.41;;;10.57;100.00
15634;BME280;14654;48.898;8.308;2023-11-19T02:04:06;100004.56;;;10.57;100.00
15634;BME280;14654;48.898;8.308;2023-11-19T02:06:33;100011.38;;;10.62;100.00
15634;BME280;14654;48.898;8.308;2023-11-19T02:08:59;100008.78;;;10.64;100.00
15634;BME280;14654;48.898;8.308;2023-11-19T02:11:25;100000.13;;;10.65;100.00
15634;BME280;14654;48.898;8.308;2023-11-19T02:13:55;99997.53;;;10.65;100.00
15634;BME280;14654;48.898;8.308;2023-11-19T02:16:20;99998.44;;;10.61;100.00
15634;BME280;14654;48.898;8.308;2023-11-19T02:18:46;100001.88;;;10.64;100.00
15634;BME280;14654;48.898;8.308;2023-11-19T02:21:11;100000.13;;;10.65;100.00
15634;BME280;14654;48.898;8.308;2023-11-19T02:23:37;100000.09;;;10.68;100.00
15634;BME280;14654;48.898;8.308;2023-11-19T02:26:50;100009.56;;;10.69;100.00
15634;BME280;14654;48.898;8.308;2023-11-19T02:28:54;100018.19;;;10.70;100.00
15634;BME280;14654;48.898;8.308;2023-11-19T02:31:19;100007.91;;;10.65;100.00
15634;BME280;14654;48.898;8.308;2023-11-19T02:33:45;100000.94;;;10.68;100.00
15634;BME280;14654;48.898;8.308;2023-11-19T02:36:10;99993.16;;;10.70;100.00
15634;BME280;14654;48.898;8.308;2023-11-19T02:38:36;99990.63;;;10.67;100.00
15634;BME280;14654;48.898;8.308;2023-11-19T02:41:05;99995.81;;;10.65;100.00
15634;BME280;14654;48.898;8.308;2023-11-19T02:43:32;99995.75;;;10.68;100.00
15634;BME280;14654;48.898;8.308;2023-11-19T02:46:02;99994.84;;;10.73;100.00
15634;BME280;14654;48.898;8.308;2023-11-19T02:48:27;99992.28;;;10.70;100.00
15634;BME280;14654;48.898;8.308;2023-11-19T02:50:53;100001.75;;;10.74;100.00
15634;BME280;14654;48.898;8.308;2023-11-19T02:53:18;99988.78;;;10.74;100.00
15634;BME280;14654;48.898;8.308;2023-11-19T02:55:47;99987.00;;;10.77;100.00
15634;BME280;14654;48.898;8.308;2023-11-19T02:58:15;99987.13;;;10.71;100.00
15634;BME280;14654;48.898;8.308;2023-11-19T03:00:49;99987.16;;;10.68;100.00
15634;BME280;14654;48.898;8.308;2023-11-19T03:03:22;99969.88;;;10.68;100.00
15634;BME280;14654;48.898;8.308;2023-11-19T03:05:51;99972.47;;;10.70;100.00
15634;BME280;14654;48.898;8.308;2023-11-19T03:08:17;99972.47;;;10.70;100.00
15634;BME280;14654;48.898;8.308;2023-11-19T03:10:42;99964.66;;;10.72;100.00
15634;BME280;14654;48.898;8.308;2023-11-19T03:13:12;99970.63;;;10.75;100.00
15634;BME280;14654;48.898;8.308;2023-11-19T03:15:39;99973.31;;;10.72;100.00
15634;BME280;14654;48.898;8.308;2023-11-19T03:18:05;99969.88;;;10.70;100.00
15634;BME280;14654;48.898;8.308;2023-11-19T03:20:30;99971.59;;;10.71;100.00
15634;BME280;14654;48.898;8.308;2023-11-19T03:22:56;99961.31;;;10.65;100.00
15634;BME280;14654;48.898;8.308;2023-11-19T03:25:24;99960.31;;;10.74;100.00
15634;BME280;14654;48.898;8.308;2023-11-19T03:27:50;99971.47;;;10.77;100.00
15634;BME280;14654;48.898;8.308;2023-11-19T03:30:16;99958.50;;;10.80;100.00
15634;BME280;14654;48.898;8.308;2023-11-19T03:32:42;99955.88;;;10.82;100.00
15634;BME280;14654;48.898;8.308;2023-11-19T03:35:08;99955.91;;;10.80;100.00
15634;BME280;14654;48.898;8.308;2023-11-19T03:37:34;99953.47;;;10.70;100.00
15634;BME280;14654;48.898;8.308;2023-11-19T03:40:00;99952.53;;;10.75;100.00
15634;BME280;14654;48.898;8.308;2023-11-19T03:42:28;99962.00;;;10.78;100.00
15634;BME280;14654;48.898;8.308;2023-11-19T03:44:54;99972.22;;;10.86;100.00
15634;BME280;14654;48.898;8.308;2023-11-19T03:47:20;99963.56;;;10.88;100.00
15634;BME280;14654;48.898;8.308;2023-11-19T03:49:49;99964.44;;;10.89;100.00
15634;BME280;14654;48.898;8.308;2023-11-19T03:52:15;99961.78;;;10.92;100.00
15634;BME280;14654;48.898;8.308;2023-11-19T03:54:40;99968.66;;;10.93;100.00
15634;BME280;14654;48.898;8.308;2023-11-19T03:57:05;99983.38;;;10.89;100.00
15634;BME280;14654;48.898;8.308;2023-11-19T03:59:31;99991.91;;;10.96;100.00
15634;BME280;14654;48.898;8.308;2023-11-19T04:01:56;100002.31;;;10.94;100.00
15634;BME280;14654;48.898;8.308;2023-11-19T04:04:22;99998.09;;;10.87;100.00
15634;BME280;14654;48.898;8.308;2023-11-19T04:06:48;99997.97;;;10.95;100.00
15634;BME280;14654;48.898;8.308;2023-11-19T04:09:13;99982.47;;;10.93;100.00
15634;BME280;14654;48.898;8.308;2023-11-19T04:11:38;99988.38;;;11.02;100.00
15634;BME280;14654;48.898;8.308;2023-11-19T04:14:05;99990.09;;;11.03;100.00
15634;BME280;14654;48.898;8.308;2023-11-19T04:16:30;99993.47;;;11.06;100.00
15634;BME280;14654;48.898;8.308;2023-11-19T04:18:56;100007.34;;;11.04;100.00
15634;BME280;14654;48.898;8.308;2023-11-19T04:21:21;99993.44;;;11.09;100.00
15634;BME280;14654;48.898;8.308;2023-11-19T04:23:48;99989.94;;;11.12;100.00
15634;BME280;14654;48.898;8.308;2023-11-19T04:26:13;99991.63;;;11.13;100.00
15634;BME280;14654;48.898;8.308;2023-11-19T04:28:39;99984.09;;;10.99;100.00
15634;BME280;14654;48.898;8.308;2023-11-19T04:31:04;99987.38;;;11.10;100.00
15634;BME280;14654;48.898;8.308;2023-11-19T04:33:31;99974.38;;;11.13;100.00
15634;BME280;14654;48.898;8.308;2023-11-19T04:35:56;99978.66;;;11.18;100.00
15634;BME280;14654;48.898;8.308;2023-11-19T04:38:21;99978.59;;;11.19;100.00
15634;BME280;14654;48.898;8.308;2023-11-19T04:40:46;99976.97;;;11.13;100.00
15634;BME280;14654;48.898;8.308;2023-11-19T04:43:12;99985.69;;;11.08;100.00
15634;BME280;14654;48.898;8.308;2023-11-19T04:45:38;99997.66;;;11.15;100.00
15634;BME280;14654;48.898;8.308;2023-11-19T04:48:05;99997.63;;;11.18;100.00
15634;BME280;14654;48.898;8.308;2023-11-19T04:50:30;99992.34;;;11.23;100.00
15634;BME280;14654;48.898;8.308;2023-11-19T04:52:55;99993.22;;;11.22;100.00
15634;BME280;14654;48.898;8.308;2023-11-19T04:55:21;99990.63;;;11.23;100.00
15634;BME280;14654;48.898;8.308;2023-11-19T04:57:47;99985.50;;;11.20;100.00
15634;BME280;14654;48.898;8.308;2023-11-19T05:00:13;99981.16;;;11.22;100.00
15634;BME280;14654;48.898;8.308;2023-11-19T05:02:38;99983.53;;;11.35;100.00
15634;BME280;14654;48.898;8.308;2023-11-19T05:05:04;99990.44;;;11.36;100.00
15634;BME280;14654;48.898;8.308;2023-11-19T05:07:30;99986.00;;;11.42;100.00
15634;BME280;14654;48.898;8.308;2023-11-19T05:09:55;99984.38;;;11.37;100.00
15634;BME280;14654;48.898;8.308;2023-11-19T05:12:21;99982.69;;;11.33;100.00
15634;BME280;14654;48.898;8.308;2023-11-19T05:14:46;99980.97;;;11.33;100.00
15634;BME280;14654;48.898;8.308;2023-11-19T05:17:15;99970.63;;;11.32;100.00
15634;BME280;14654;48.898;8.308;2023-11-19T05:19:41;99972.47;;;11.26;100.00
15634;BME280;14654;48.898;8.308;2023-11-19T05:22:06;99978.25;;;11.41;100.00
15634;BME280;14654;48.898;8.308;2023-11-19T05:24:32;99976.41;;;11.48;100.00
15634;BME280;14654;48.898;8.308;2023-11-19T05:26:58;99969.56;;;11.42;100.00
15634;BME280;14654;48.898;8.308;2023-11-19T05:29:23;99969.44;;;11.50;100.00
15634;BME280;14654;48.898;8.308;2023-11-19T05:31:49;99967.09;;;11.36;100.00
15634;BME280;14654;48.898;8.308;2023-11-19T05:34:14;99969.44;;;11.50;100.00
15634;BME280;14654;48.898;8.308;2023-11-19T05:36:40;99965.06;;;11.53;100.00
15634;BME280;14654;48.898;8.308;2023-11-19T05:39:05;99970.16;;;11.58;100.00
15634;BME280;14654;48.898;8.308;2023-11-19T05:41:31;99982.34;;;11.54;100.00
15634;BME280;14654;48.898;8.308;2023-11-19T05:43:56;99977.34;;;11.43;100.00
15634;BME280;14654;48.898;8.308;2023-11-19T05:46:21;99969.34;;;11.56;100.00
15634;BME280;14654;48.898;8.308;2023-11-19T05:48:47;99968.22;;;11.69;100.00
15634;BME280;14654;48.898;8.308;2023-11-19T05:51:13;99964.00;;;11.64;100.00
15634;BME280;14654;48.898;8.308;2023-11-19T05:53:40;99976.88;;;11.70;100.00
15634;BME280;14654;48.898;8.308;2023-11-19T05:56:06;99974.38;;;11.64;100.00
15634;BME280;14654;48.898;8.308;2023-11-19T05:58:34;99974.28;;;11.70;100.00
15634;BME280;14654;48.898;8.308;2023-11-19T06:01:01;99981.19;;;11.69;100.00
15634;BME280;14654;48.898;8.308;2023-11-19T06:03:27;99988.41;;;11.53;100.00
15634;BME280;14654;48.898;8.308;2023-11-19T06:05:53;99986.41;;;11.66;100.00
15634;BME280;14654;48.898;8.308;2023-11-19T06:08:19;99985.81;;;11.52;100.00
15634;BME280;14654;48.898;8.308;2023-11-19T06:10:46;99971.00;;;11.60;100.00
15634;BME280;14654;48.898;8.308;2023-11-19T06:13:12;99962.34;;;11.59;100.00
15634;BME280;14654;48.898;8.308;2023-11-19T06:15:41;99954.72;;;11.52;100.00
15634;BME280;14654;48.898;8.308;2023-11-19T06:18:06;99955.50;;;11.57;100.00
15634;BME280;14654;48.898;8.308;2023-11-19T06:20:32;99967.66;;;11.53;100.00
15634;BME280;14654;48.898;8.308;2023-11-19T06:22:58;99979.75;;;11.53;100.00
15634;BME280;14654;48.898;8.308;2023-11-19T06:25:24;99956.53;;;11.48;100.00
15634;BME280;14654;48.898;8.308;2023-11-19T06:27:50;99965.13;;;11.50;100.00
15634;BME280;14654;48.898;8.308;2023-11-19T06:30:15;99964.19;;;11.54;100.00
15634;BME280;14654;48.898;8.308;2023-11-19T06:32:41;99966.00;;;11.49;100.00
15634;BME280;14654;48.898;8.308;2023-11-19T06:35:07;99966.78;;;11.53;100.00
15634;BME280;14654;48.898;8.308;2023-11-19T06:37:33;99968.59;;;11.49;100.00
15634;BME280;14654;48.898;8.308;2023-11-19T06:39:59;99976.31;;;11.52;100.00
15634;BME280;14654;48.898;8.308;2023-11-19T06:42:24;99974.44;;;11.61;100.00
15634;BME280;14654;48.898;8.308;2023-11-19T06:44:49;99986.38;;;11.69;100.00
15634;BME280;14654;48.898;8.308;2023-11-19T06:47:15;99995.03;;;11.68;100.00
15634;BME280;14654;48.898;8.308;2023-11-19T06:49:43;100006.28;;;11.67;100.00
15634;BME280;14654;48.898;8.308;2023-11-19T06:52:08;100008.13;;;11.61;100.00
15634;BME280;14654;48.898;8.308;2023-11-19T06:54:33;99995.03;;;11.70;100.00
15634;BME280;14654;48.898;8.308;2023-11-19T06:56:59;100013.91;;;11.75;100.00
15634;BME280;14654;48.898;8.308;2023-11-19T06:59:24;100018.25;;;11.74;100.00
15634;BME280;14654;48.898;8.308;2023-11-19T07:01:49;100018.06;;;11.85;100.00
15634;BME280;14654;48.898;8.308;2023-11-19T07:04:15;100033.41;;;11.96;100.00
15634;BME280;14654;48.898;8.308;2023-11-19T07:06:40;100033.47;;;11.93;100.00
15634;BME280;14654;48.898;8.308;2023-11-19T07:09:06;100041.47;;;11.82;100.00
15634;BME280;14654;48.898;8.308;2023-11-19T07:11:36;100055.84;;;12.00;100.00
15634;BME280;14654;48.898;8.308;2023-11-19T07:14:02;100068.84;;;11.99;100.00
15634;BME280;14654;48.898;8.308;2023-11-19T07:16:27;100067.25;;;11.88;100.00
15634;BME280;14654;48.898;8.308;2023-11-19T07:18:53;100065.44;;;11.94;100.00
15634;BME280;14654;48.898;8.308;2023-11-19T07:21:19;100067.84;;;12.06;100.00
15634;BME280;14654;48.898;8.308;2023-11-19T07:23:45;100088.63;;;12.04;100.00
15634;BME280;14654;48.898;8.308;2023-11-19T07:26:10;100088.63;;;12.03;100.00
15634;BME280;14654;48.898;8.308;2023-11-19T07:28:36;100098.97;;;12.08;100.00
15634;BME280;14654;48.898;8.308;2023-11-19T07:31:01;100101.41;;;12.14;100.00
15634;BME280;14654;48.898;8.308;2023-11-19T07:33:27;100097.81;;;12.23;100.00
15634;BME280;14654;48.898;8.308;2023-11-19T07:35:53;100109.84;;;12.25;100.00
15634;BME280;14654;48.898;8.308;2023-11-19T07:38:18;100123.69;;;12.26;100.00
15634;BME280;14654;48.898;8.308;2023-11-19T07:40:43;100123.75;;;12.23;100.00
15634;BME280;14654;48.898;8.308;2023-11-19T07:43:09;100128.00;;;12.27;100.00
15634;BME280;14654;48.898;8.308;2023-11-19T07:45:34;100139.06;;;12.37;100.00
15634;BME280;14654;48.898;8.308;2023-11-19T07:48:00;100146.97;;;12.30;100.00
15634;BME280;14654;48.898;8.308;2023-11-19T07:50:26;100157.25;;;12.37;100.00
15634;BME280;14654;48.898;8.308;2023-11-19T07:52:51;100157.16;;;12.41;100.00
15634;BME280;14654;48.898;8.308;2023-11-19T07:55:17;100155.44;;;12.40;100.00
15634;BME280;14654;48.898;8.308;2023-11-19T07:57:42;100150.28;;;12.39;100.00
15634;BME280;14654;48.898;8.308;2023-11-19T08:00:08;100151.13;;;12.39;100.00
15634;BME280;14654;48.898;8.308;2023-11-19T08:02:37;100163.19;;;12.42;100.00
15634;BME280;14654;48.898;8.308;2023-11-19T08:05:03;100169.34;;;12.38;100.00
15634;BME280;14654;48.898;8.308;2023-11-19T08:07:28;100171.69;;;12.48;100.00
15634;BME280;14654;48.898;8.308;2023-11-19T08:09:53;100164.09;;;12.39;100.00
15634;BME280;14654;48.898;8.308;2023-11-19T08:12:19;100173.56;;;12.42;100.00
15634;BME280;14654;48.898;8.308;2023-11-19T08:14:44;100173.56;;;12.42;100.00
15634;BME280;14654;48.898;8.308;2023-11-19T08:17:10;100183.78;;;12.49;100.00
15634;BME280;14654;48.898;8.308;2023-11-19T08:19:35;100177.72;;;12.52;100.00
15634;BME280;14654;48.898;8.308;2023-11-19T08:22:00;100183.88;;;12.46;100.00
15634;BME280;14654;48.898;8.308;2023-11-19T08:24:26;100182.91;;;12.50;100.00
15634;BME280;14654;48.898;8.308;2023-11-19T08:26:51;100180.41;;;12.47;100.00
15634;BME280;14654;48.898;8.308;2023-11-19T08:29:16;100187.00;;;12.64;100.00
15634;BME280;14654;48.898;8.308;2023-11-19T08:31:42;100185.72;;;12.40;100.00
15634;BME280;14654;48.898;8.308;2023-11-19T08:34:07;100186.94;;;12.69;100.00
15634;BME280;14654;48.898;8.308;2023-11-19T08:36:34;100192.03;;;12.72;100.00
15634;BME280;14654;48.898;8.308;2023-11-19T08:38:59;100190.13;;;12.81;100.00
15634;BME280;14654;48.898;8.308;2023-11-19T08:41:25;100202.78;;;12.53;100.00
15634;BME280;14654;48.898;8.308;2023-11-19T08:43:50;100205.41;;;12.52;100.00
15634;BME280;14654;48.898;8.308;2023-11-19T08:46:16;100210.28;;;12.69;100.00
15634;BME280;14654;48.898;8.308;2023-11-19T08:48:42;100215.44;;;12.70;100.00
15634;BME280;14654;48.898;8.308;2023-11-19T08:51:07;100209.41;;;12.68;100.00
15634;BME280;14654;48.898;8.308;2023-11-19T08:53:33;100204.19;;;12.71;100.00
15634;BME280;14654;48.898;8.308;2023-11-19T08:55:58;100207.50;;;12.78;100.00
15634;BME280;14654;48.898;8.308;2023-11-19T08:58:23;100207.56;;;12.76;100.00
15634;BME280;14654;48.898;8.308;2023-11-19T09:00:49;100205.75;;;12.78;100.00
15634;BME280;14654;48.898;8.308;2023-11-19T09:03:14;100216.81;;;12.88;100.00
15634;BME280;14654;48.898;8.308;2023-11-19T09:05:39;100218.59;;;12.86;100.00
15634;BME280;14654;48.898;8.308;2023-11-19T09:08:06;100228.47;;;12.67;100.00
15634;BME280;14654;48.898;8.308;2023-11-19T09:10:31;100230.88;;;12.78;100.00
15634;BME280;14654;48.898;8.308;2023-11-19T09:12:57;100222.88;;;12.89;100.00
15634;BME280;14654;48.898;8.308;2023-11-19T09:15:22;100220.25;;;12.90;100.00
15634;BME280;14654;48.898;8.308;2023-11-19T09:17:47;100227.34;;;12.80;100.00
15634;BME280;14654;48.898;8.308;2023-11-19T09:20:13;100234.53;;;12.68;100.00
15634;BME280;14654;48.898;8.308;2023-11-19T09:22:43;100228.81;;;12.94;100.00
15634;BME280;14654;48.898;8.308;2023-11-19T09:25:08;100237.53;;;12.91;100.00
15634;BME280;14654;48.898;8.308;2023-11-19T09:27:34;100235.66;;;13.00;100.00
15634;BME280;14654;48.898;8.308;2023-11-19T09:29:59;100219.94;;;13.07;100.00
15634;BME280;14654;48.898;8.308;2023-11-19T09:32:25;100229.09;;;13.24;100.00
15634;BME280;14654;48.898;8.308;2023-11-19T09:34:51;100233.34;;;13.30;100.00
15634;BME280;14654;48.898;8.308;2023-11-19T09:37:16;100230.72;;;13.30;100.00
15634;BME280;14654;48.898;8.308;2023-11-19T09:39:41;100225.44;;;13.34;100.00
15634;BME280;14654;48.898;8.308;2023-11-19T09:42:09;100221.75;;;13.45;100.00
15634;BME280;14654;48.898;8.308;2023-11-19T09:44:37;100232.41;;;13.32;100.00
15634;BME280;14654;48.898;8.308;2023-11-19T09:47:03;100240.34;;;13.67;100.00
15634;BME280;14654;48.898;8.308;2023-11-19T09:49:29;100240.69;;;13.51;100.00
15634;BME280;14654;48.898;8.308;2023-11-19T09:51:55;100231.81;;;13.60;100.00
15634;BME280;14654;48.898;8.308;2023-11-19T09:54:21;100229.94;;;13.68;100.00
15634;BME280;14654;48.898;8.308;2023-11-19T09:56:47;100216.84;;;13.31;100.00
15634;BME280;14654;48.898;8.308;2023-11-19T09:59:13;100214.41;;;13.64;100.00
15634;BME280;14654;48.898;8.308;2023-11-19T10:01:38;100227.03;;;13.81;100.00
15634;BME280;14654;48.898;8.308;2023-11-19T10:04:06;100228.28;;;14.00;100.00
15634;BME280;14654;48.898;8.308;2023-11-19T10:06:32;100216.63;;;13.81;100.00
15634;BME280;14654;48.898;8.308;2023-11-19T10:08:57;100225.97;;;13.90;100.00
15634;BME280;14654;48.898;8.308;2023-11-19T10:11:22;100228.91;;;14.12;100.00
15634;BME280;14654;48.898;8.308;2023-11-19T10:13:48;100215.91;;;14.45;100.00
15634;BME280;14654;48.898;8.308;2023-11-19T10:16:14;100230.41;;;14.55;100.00
15634;BME280;14654;48.898;8.308;2023-11-19T10:18:48;100216.94;;;14.72;100.00
15634;BME280;14654;48.898;8.308;2023-11-19T10:21:17;100209.53;;;14.57;100.00
15634;BME280;14654;48.898;8.308;2023-11-19T10:23:52;100206.88;;;14.25;100.00
15634;BME280;14654;48.898;8.308;2023-11-19T10:26:19;100204.03;;;14.35;100.00
15634;BME280;14654;48.898;8.308;2023-11-19T10:28:46;100207.97;;;14.15;100.00
15634;BME280;14654;48.898;8.308;2023-11-19T10:31:16;100200.38;;;14.07;100.00
15634;BME280;14654;48.898;8.308;2023-11-19T10:33:42;100194.25;;;14.10;100.00
15634;BME280;14654;48.898;8.308;2023-11-19T10:36:10;100192.16;;;14.23;100.00
15634;BME280;14654;48.898;8.308;2023-11-19T10:38:37;100191.56;;;14.13;100.00
15634;BME280;14654;48.898;8.308;2023-11-19T10:41:03;100203.81;;;14.44;100.00
15634;BME280;14654;48.898;8.308;2023-11-19T10:43:30;100196.38;;;14.61;100.00
15634;BME280;14654;48.898;8.308;2023-11-19T10:46:12;100195.47;;;14.62;100.00
15634;BME280;14654;48.898;8.308;2023-11-19T10:48:38;100199.88;;;14.27;100.00
15634;BME280;14654;48.898;8.308;2023-11-19T10:51:05;100204.31;;;14.57;100.00
15634;BME280;14654;48.898;8.308;2023-11-19T10:53:36;100200.88;;;14.55;100.00
15634;BME280;14654;48.898;8.308;2023-11-19T10:56:06;100190.16;;;14.69;100.00
15634;BME280;14654;48.898;8.308;2023-11-19T10:58:35;100195.34;;;14.67;100.00
15634;BME280;14654;48.898;8.308;2023-11-19T11:01:08;100190.47;;;14.55;100.00
15634;BME280;14654;48.898;8.308;2023-11-19T11:03:41;100183.78;;;14.79;100.00
15634;BME280;14654;48.898;8.308;2023-11-19T11:06:08;100183.41;;;14.91;100.00
15634;BME280;14654;48.898;8.308;2023-11-19T11:08:36;100175.50;;;14.94;100.00
15634;BME280;14654;48.898;8.308;2023-11-19T11:11:03;100176.91;;;14.76;100.00
15634;BME280;14654;48.898;8.308;2023-11-19T11:13:31;100166.81;;;14.62;100.00
15634;BME280;14654;48.898;8.308;2023-11-19T11:15:57;100175.78;;;14.52;100.00
15634;BME280;14654;48.898;8.308;2023-11-19T11:18:26;100188.06;;;14.48;100.00
15634;BME280;14654;48.898;8.308;2023-11-19T11:21:21;100170.94;;;14.40;100.00
15634;BME280;14654;48.898;8.308;2023-11-19T11:29:51;100191.81;;;15.01;100.00
15634;BME280;14654;48.898;8.308;2023-11-19T11:32:40;100181.31;;;15.34;100.00
15634;BME280;14654;48.898;8.308;2023-11-19T11:35:53;100180.34;;;15.37;100.00
15634;BME280;14654;48.898;8.308;2023-11-19T11:38:23;100174.25;;;15.08;100.00
15634;BME280;14654;48.898;8.308;2023-11-19T11:41:20;100175.28;;;15.02;100.00
15634;BME280;14654;48.898;8.308;2023-11-19T11:43:50;100177.69;;;15.10;100.00
15634;BME280;14654;48.898;8.308;2023-11-19T11:54:25;100163.16;;;15.01;100.00
15634;BME280;14654;48.898;8.308;2023-11-19T11:57:20;100145.13;;;14.95;100.00
15634;BME280;14654;48.898;8.308;2023-11-19T11:59:48;100143.78;;;14.82;100.00
15634;BME280;14654;48.898;8.308;2023-11-19T12:02:19;100140.13;;;14.87;100.00
15634;BME280;14654;48.898;8.308;2023-11-19T12:04:47;100141.94;;;14.84;100.00
15634;BME280;14654;48.898;8.308;2023-11-19T12:07:33;100149.31;;;14.99;100.00
15634;BME280;14654;48.898;8.308;2023-11-19T12:10:09;100133.66;;;15.01;100.00
15634;BME280;14654;48.898;8.308;2023-11-19T12:12:37;100132.94;;;14.64;100.00
15634;BME280;14654;48.898;8.308;2023-11-19T12:20:05;100123.97;;;15.04;100.00
15634;BME280;14654;48.898;8.308;2023-11-19T12:22:40;100119.22;;;14.89;100.00
15634;BME280;14654;48.898;8.308;2023-11-19T12:25:07;100123.38;;;14.96;100.00
15634;BME280;14654;48.898;8.308;2023-11-19T12:27:34;100131.50;;;14.85;100.00
15634;BME280;14654;48.898;8.308;2023-11-19T12:30:00;100119.09;;;14.93;100.00
15634;BME280;14654;48.898;8.308;2023-11-19T12:32:25;100116.59;;;15.19;100.00
15634;BME280;14654;48.898;8.308;2023-11-19T12:34:51;100109.91;;;14.82;100.00
15634;BME280;14654;48.898;8.308;2023-11-19T12:37:16;100096.59;;;14.91;100.00
15634;BME280;14654;48.898;8.308;2023-11-19T12:39:42;100098.09;;;14.70;100.00
15634;BME280;14654;48.898;8.308;2023-11-19T12:42:08;100091.88;;;15.04;100.00
15634;BME280;14654;48.898;8.308;2023-11-19T12:44:33;100093.78;;;15.26;100.00
15634;BME280;14654;48.898;8.308;2023-11-19T12:49:25;100083.84;;;15.38;100.00
15634;BME280;14654;48.898;8.308;2023-11-19T12:51:50;100077.66;;;15.41;100.00
15634;BME280;14654;48.898;8.308;2023-11-19T12:54:16;100077.97;;;15.32;100.00
15634;BME280;14654;48.898;8.308;2023-11-19T12:56:54;100066.50;;;15.36;100.00
15634;BME280;14654;48.898;8.308;2023-11-19T12:59:19;100063.41;;;15.24;100.00
15634;BME280;14654;48.898;8.308;2023-11-19T13:01:55;100074.22;;;15.12;100.00
15634;BME280;14654;48.898;8.308;2023-11-19T13:04:20;100063.22;;;15.31;100.00